sensor_id;sensor_type;location;lat;lon;timestamp;pressure;altitude;pressure_sealevel;temperature;humidity
8298;BME280;4187;42.778;23.242;2024-01-30T00:01:51;97313.38;;;1.04;100.00
8298;BME280;4187;42.778;23.242;2024-01-30T00:04:18;97314.03;;;1.12;100.00
8298;BME280;4187;42.778;23.242;2024-01-30T00:06:46;97307.13;;;1.11;100.00
8298;BME280;4187;42.778;23.242;2024-01-30T00:09:13;97312.31;;;1.11;100.00
8298;BME280;4187;42.778;23.242;2024-01-30T00:11:40;97302.25;;;0.98;100.00
8298;BME280;4187;42.778;23.242;2024-01-30T00:14:07;97316.09;;;1.00;100.00
8298;BME280;4187;42.778;23.242;2024-01-30T00:16:34;97312.66;;;0.98;100.00
8298;BME280;4187;42.778;23.242;2024-01-30T00:19:01;97319.75;;;0.91;100.00
8298;BME280;4187;42.778;23.242;2024-01-30T00:21:28;97314.44;;;0.96;100.00
8298;BME280;4187;42.778;23.242;2024-01-30T00:23:56;97312.78;;;0.93;100.00
8298;BME280;4187;42.778;23.242;2024-01-30T00:26:22;97316.31;;;0.89;100.00
8298;BME280;4187;42.778;23.242;2024-01-30T00:28:49;97319.03;;;0.86;100.00
8298;BME280;4187;42.778;23.242;2024-01-30T00:31:16;97323.28;;;0.89;100.00
8298;BME280;4187;42.778;23.242;2024-01-30T00:33:43;97315.31;;;0.95;100.00
8298;BME280;4187;42.778;23.242;2024-01-30T00:36:10;97315.44;;;0.92;100.00
8298;BME280;4187;42.778;23.242;2024-01-30T00:38:37;97311.31;;;0.83;99.73
8298;BME280;4187;42.778;23.242;2024-01-30T00:41:07;97317.34;;;0.84;100.00
8298;BME280;4187;42.778;23.242;2024-01-30T00:43:34;97315.56;;;0.86;99.31
8298;BME280;4187;42.778;23.242;2024-01-30T00:46:01;97312.00;;;0.90;100.00
8298;BME280;4187;42.778;23.242;2024-01-30T00:48:28;97310.31;;;0.87;99.85
8298;BME280;4187;42.778;23.242;2024-01-30T00:50:55;97283.13;;;0.67;99.68
8298;BME280;4187;42.778;23.242;2024-01-30T00:53:22;97312.97;;;0.86;99.31
8298;BME280;4187;42.778;23.242;2024-01-30T00:55:49;97318.25;;;0.81;99.42
8298;BME280;4187;42.778;23.242;2024-01-30T00:58:17;97306.25;;;0.77;99.25
8298;BME280;4187;42.778;23.242;2024-01-30T01:00:46;97308.22;;;0.66;99.03
8298;BME280;4187;42.778;23.242;2024-01-30T01:03:12;97326.31;;;0.71;98.67
8298;BME280;4187;42.778;23.242;2024-01-30T01:05:40;97325.50;;;0.69;100.00
8298;BME280;4187;42.778;23.242;2024-01-30T01:08:06;97313.72;;;0.54;100.00
8298;BME280;4187;42.778;23.242;2024-01-30T01:10:34;97327.91;;;0.39;100.00
8298;BME280;4187;42.778;23.242;2024-01-30T01:13:01;97313.13;;;0.41;100.00
8298;BME280;4187;42.778;23.242;2024-01-30T01:15:29;97319.19;;;0.42;100.00
8298;BME280;4187;42.778;23.242;2024-01-30T01:17:56;97319.19;;;0.42;100.00
8298;BME280;4187;42.778;23.242;2024-01-30T01:20:22;97303.81;;;0.33;100.00
8298;BME280;4187;42.778;23.242;2024-01-30T01:22:49;97319.13;;;0.45;100.00
8298;BME280;4187;42.778;23.242;2024-01-30T01:25:17;97305.28;;;0.44;100.00
8298;BME280;4187;42.778;23.242;2024-01-30T01:27:45;97316.53;;;0.43;100.00
8298;BME280;4187;42.778;23.242;2024-01-30T01:30:17;97277.31;;;0.19;100.00
8298;BME280;4187;42.778;23.242;2024-01-30T01:32:48;97315.78;;;0.38;100.00
8298;BME280;4187;42.778;23.242;2024-01-30T01:35:20;97315.91;;;0.34;100.00
8298;BME280;4187;42.778;23.242;2024-01-30T01:37:48;97309.91;;;0.32;100.00
8298;BME280;4187;42.778;23.242;2024-01-30T01:40:20;97310.75;;;0.32;100.00
8298;BME280;4187;42.778;23.242;2024-01-30T01:42:47;97304.78;;;0.27;100.00
8298;BME280;4187;42.778;23.242;2024-01-30T01:45:14;97315.41;;;0.18;100.00
8298;BME280;4187;42.778;23.242;2024-01-30T01:47:41;97314.63;;;0.13;100.00
8298;BME280;4187;42.778;23.242;2024-01-30T01:50:09;97312.19;;;0.06;100.00
8298;BME280;4187;42.778;23.242;2024-01-30T01:52:37;97314.00;;;0.02;100.00
8298;BME280;4187;42.778;23.242;2024-01-30T01:55:06;97309.81;;;-0.04;100.00
8298;BME280;4187;42.778;23.242;2024-01-30T01:57:33;97312.50;;;-0.10;100.00
8298;BME280;4187;42.778;23.242;2024-01-30T02:00:00;97315.97;;;-0.11;100.00
8298;BME280;4187;42.778;23.242;2024-01-30T02:02:30;97317.75;;;-0.11;100.00
8298;BME280;4187;42.778;23.242;2024-01-30T02:04:57;97311.75;;;-0.15;100.00
8298;BME280;4187;42.778;23.242;2024-01-30T02:07:27;97311.72;;;-0.13;100.00
8298;BME280;4187;42.778;23.242;2024-01-30T02:09:54;97310.91;;;-0.15;100.00
8298;BME280;4187;42.778;23.242;2024-01-30T02:12:21;97314.47;;;-0.19;100.00
8298;BME280;4187;42.778;23.242;2024-01-30T02:14:48;97321.38;;;-0.20;100.00
8298;BME280;4187;42.778;23.242;2024-01-30T02:17:16;97329.22;;;-0.24;100.00
8298;BME280;4187;42.778;23.242;2024-01-30T02:19:42;97319.72;;;-0.24;100.00
8298;BME280;4187;42.778;23.242;2024-01-30T02:22:11;97311.91;;;-0.22;100.00
8298;BME280;4187;42.778;23.242;2024-01-30T02:24:37;97277.75;;;-0.44;100.00
8298;BME280;4187;42.778;23.242;2024-01-30T02:27:04;97308.53;;;-0.26;100.00
8298;BME280;4187;42.778;23.242;2024-01-30T02:29:31;97315.44;;;-0.25;100.00
8298;BME280;4187;42.778;23.242;2024-01-30T02:31:58;97313.66;;;-0.24;100.00
8298;BME280;4187;42.778;23.242;2024-01-30T02:34:24;97307.59;;;-0.22;100.00
8298;BME280;4187;42.778;23.242;2024-01-30T02:36:51;97311.06;;;-0.24;100.00
8298;BME280;4187;42.778;23.242;2024-01-30T02:39:19;97303.28;;;-0.23;100.00
8298;BME280;4187;42.778;23.242;2024-01-30T02:41:46;97306.63;;;-0.18;100.00
8298;BME280;4187;42.778;23.242;2024-01-30T02:44:13;97304.06;;;-0.19;100.00
8298;BME280;4187;42.778;23.242;2024-01-30T02:46:39;97307.53;;;-0.20;100.00
8298;BME280;4187;42.778;23.242;2024-01-30T02:49:06;97305.75;;;-0.17;100.00
8298;BME280;4187;42.778;23.242;2024-01-30T02:51:33;97305.69;;;-0.14;100.00
8298;BME280;4187;42.778;23.242;2024-01-30T02:54:00;97297.00;;;-0.11;100.00
8298;BME280;4187;42.778;23.242;2024-01-30T02:56:28;97304.59;;;-0.04;100.00
8298;BME280;4187;42.778;23.242;2024-01-30T02:58:55;97301.94;;;-0.01;100.00
8298;BME280;4187;42.778;23.242;2024-01-30T03:01:21;97301.91;;;0.03;100.00
8298;BME280;4187;42.778;23.242;2024-01-30T03:03:49;97272.66;;;-0.07;100.00
8298;BME280;4187;42.778;23.242;2024-01-30T03:06:16;97301.63;;;0.15;100.00
8298;BME280;4187;42.778;23.242;2024-01-30T03:08:45;97301.63;;;0.15;100.00
8298;BME280;4187;42.778;23.242;2024-01-30T03:11:12;97310.19;;;0.18;100.00
8298;BME280;4187;42.778;23.242;2024-01-30T03:13:40;97308.38;;;0.22;100.00
8298;BME280;4187;42.778;23.242;2024-01-30T03:16:08;97288.63;;;0.15;100.00
8298;BME280;4187;42.778;23.242;2024-01-30T03:18:35;97297.22;;;0.17;100.00
8298;BME280;4187;42.778;23.242;2024-01-30T03:21:01;97305.03;;;0.17;100.00
8298;BME280;4187;42.778;23.242;2024-01-30T03:23:28;97305.03;;;0.17;100.00
8298;BME280;4187;42.778;23.242;2024-01-30T03:25:57;97281.88;;;0.08;100.00
8298;BME280;4187;42.778;23.242;2024-01-30T03:28:24;97296.28;;;0.21;100.00
8298;BME280;4187;42.778;23.242;2024-01-30T03:30:58;97298.91;;;0.21;100.00
8298;BME280;4187;42.778;23.242;2024-01-30T03:33:25;97295.25;;;0.28;100.00
8298;BME280;4187;42.778;23.242;2024-01-30T03:35:53;97290.19;;;0.22;100.00
8298;BME280;4187;42.778;23.242;2024-01-30T03:38:20;97286.78;;;0.20;100.00
8298;BME280;4187;42.778;23.242;2024-01-30T03:40:47;97288.44;;;0.24;100.00
8298;BME280;4187;42.778;23.242;2024-01-30T03:43:13;97291.81;;;0.27;100.00
8298;BME280;4187;42.778;23.242;2024-01-30T03:45:40;97300.50;;;0.26;100.00
8298;BME280;4187;42.778;23.242;2024-01-30T03:48:08;97296.16;;;0.27;100.00
8298;BME280;4187;42.778;23.242;2024-01-30T03:50:35;97290.00;;;0.31;100.00
8298;BME280;4187;42.778;23.242;2024-01-30T03:53:02;97267.75;;;0.19;100.00
8298;BME280;4187;42.778;23.242;2024-01-30T03:55:29;97286.59;;;0.27;100.00
8298;BME280;4187;42.778;23.242;2024-01-30T03:57:56;97282.19;;;0.32;100.00
8298;BME280;4187;42.778;23.242;2024-01-30T04:00:22;97276.03;;;0.36;100.00
8298;BME280;4187;42.778;23.242;2024-01-30T04:02:49;97281.34;;;0.30;100.00
8298;BME280;4187;42.778;23.242;2024-01-30T04:05:17;97236.16;;;0.02;100.00
8298;BME280;4187;42.778;23.242;2024-01-30T04:07:44;97275.66;;;0.15;100.00
8298;BME280;4187;42.778;23.242;2024-01-30T04:10:11;97267.94;;;0.12;100.00
8298;BME280;4187;42.778;23.242;2024-01-30T04:12:38;97276.34;;;0.23;99.67
8298;BME280;4187;42.778;23.242;2024-01-30T04:15:05;97277.91;;;0.30;99.32
8298;BME280;4187;42.778;23.242;2024-01-30T04:17:32;97284.94;;;0.26;99.01
8298;BME280;4187;42.778;23.242;2024-01-30T04:19:58;97289.19;;;0.29;99.19
8298;BME280;4187;42.778;23.242;2024-01-30T04:22:26;97277.13;;;0.26;99.30
8298;BME280;4187;42.778;23.242;2024-01-30T04:24:53;97286.66;;;0.26;99.33
8298;BME280;4187;42.778;23.242;2024-01-30T04:27:20;97279.81;;;0.22;99.05
8298;BME280;4187;42.778;23.242;2024-01-30T04:29:47;97293.59;;;0.25;99.25
8298;BME280;4187;42.778;23.242;2024-01-30T04:32:13;97292.72;;;0.26;99.14
8298;BME280;4187;42.778;23.242;2024-01-30T04:34:40;97299.66;;;0.26;98.84
8298;BME280;4187;42.778;23.242;2024-01-30T04:37:08;97303.03;;;0.29;98.75
8298;BME280;4187;42.778;23.242;2024-01-30T04:39:36;97302.19;;;0.27;98.76
8298;BME280;4187;42.778;23.242;2024-01-30T04:42:04;97306.56;;;0.27;98.29
8298;BME280;4187;42.778;23.242;2024-01-30T04:44:30;97303.03;;;0.29;98.74
8298;BME280;4187;42.778;23.242;2024-01-30T04:46:57;97311.59;;;0.33;98.97
8298;BME280;4187;42.778;23.242;2024-01-30T04:49:27;97293.69;;;0.21;98.54
8298;BME280;4187;42.778;23.242;2024-01-30T04:51:54;97313.34;;;0.32;98.27
8298;BME280;4187;42.778;23.242;2024-01-30T04:54:21;97326.28;;;0.34;98.62
8298;BME280;4187;42.778;23.242;2024-01-30T04:56:49;97326.25;;;0.35;97.78
8298;BME280;4187;42.778;23.242;2024-01-30T04:59:16;97325.53;;;0.29;97.57
8298;BME280;4187;42.778;23.242;2024-01-30T05:01:42;97310.38;;;0.09;97.67
8298;BME280;4187;42.778;23.242;2024-01-30T05:04:09;97300.34;;;-0.08;98.32
8298;BME280;4187;42.778;23.242;2024-01-30T05:06:36;97327.69;;;0.09;98.25
8298;BME280;4187;42.778;23.242;2024-01-30T05:09:03;97327.63;;;0.13;98.57
8298;BME280;4187;42.778;23.242;2024-01-30T05:11:30;97321.69;;;0.08;99.36
8298;BME280;4187;42.778;23.242;2024-01-30T05:13:58;97325.97;;;0.09;98.99
8298;BME280;4187;42.778;23.242;2024-01-30T05:16:25;97326.81;;;0.10;99.28
8298;BME280;4187;42.778;23.242;2024-01-30T05:18:51;97323.34;;;0.11;98.41
8298;BME280;4187;42.778;23.242;2024-01-30T05:24:27;97301.47;;;-0.19;97.75
8298;BME280;4187;42.778;23.242;2024-01-30T05:26:54;97333.22;;;-0.07;98.38
8298;BME280;4187;42.778;23.242;2024-01-30T05:29:22;97334.94;;;-0.07;98.50
8298;BME280;4187;42.778;23.242;2024-01-30T05:31:49;97328.03;;;-0.07;98.78
8298;BME280;4187;42.778;23.242;2024-01-30T05:34:17;97328.88;;;-0.06;98.78
8298;BME280;4187;42.778;23.242;2024-01-30T05:36:43;97311.00;;;-0.20;98.98
8298;BME280;4187;42.778;23.242;2024-01-30T05:39:10;97326.31;;;-0.08;98.26
8298;BME280;4187;42.778;23.242;2024-01-30T05:41:37;97334.19;;;-0.12;98.21
8298;BME280;4187;42.778;23.242;2024-01-30T05:44:04;97337.81;;;-0.19;98.58
8298;BME280;4187;42.778;23.242;2024-01-30T05:46:33;97329.22;;;-0.24;98.93
8298;BME280;4187;42.778;23.242;2024-01-30T05:49:00;97326.03;;;-0.37;99.08
8298;BME280;4187;42.778;23.242;2024-01-30T05:51:27;97312.59;;;-0.57;99.89
8298;BME280;4187;42.778;23.242;2024-01-30T05:53:54;97329.00;;;-0.56;100.00
8298;BME280;4187;42.778;23.242;2024-01-30T05:56:21;97329.31;;;-0.73;100.00
8298;BME280;4187;42.778;23.242;2024-01-30T05:58:48;97312.19;;;-0.82;100.00
8298;BME280;4187;42.778;23.242;2024-01-30T06:01:15;97325.72;;;-0.66;100.00
8298;BME280;4187;42.778;23.242;2024-01-30T06:03:43;97325.72;;;-0.68;100.00
8298;BME280;4187;42.778;23.242;2024-01-30T06:06:10;97329.94;;;-0.62;100.00
8298;BME280;4187;42.778;23.242;2024-01-30T06:08:37;97334.97;;;-0.53;100.00
8298;BME280;4187;42.778;23.242;2024-01-30T06:11:04;97331.47;;;-0.49;100.00
8298;BME280;4187;42.778;23.242;2024-01-30T06:13:30;97334.69;;;-0.38;100.00
8298;BME280;4187;42.778;23.242;2024-01-30T06:15:58;97335.47;;;-0.33;100.00
8298;BME280;4187;42.778;23.242;2024-01-30T06:18:25;97336.94;;;-0.20;100.00
8298;BME280;4187;42.778;23.242;2024-01-30T06:20:53;97328.13;;;-0.11;100.00
8298;BME280;4187;42.778;23.242;2024-01-30T06:23:20;97333.03;;;0.03;100.00
8298;BME280;4187;42.778;23.242;2024-01-30T06:25:47;97337.22;;;0.10;100.00
8298;BME280;4187;42.778;23.242;2024-01-30T06:28:14;97335.00;;;0.31;100.00
8298;BME280;4187;42.778;23.242;2024-01-30T06:31:00;97341.53;;;0.49;100.00
8298;BME280;4187;42.778;23.242;2024-01-30T06:33:27;97335.09;;;0.67;100.00
8298;BME280;4187;42.778;23.242;2024-01-30T06:35:55;97337.22;;;0.86;100.00
8298;BME280;4187;42.778;23.242;2024-01-30T06:38:22;97339.31;;;1.07;97.68
8298;BME280;4187;42.778;23.242;2024-01-30T06:40:49;97338.97;;;1.19;96.14
8298;BME280;4187;42.778;23.242;2024-01-30T06:43:16;97339.25;;;1.43;97.03
8298;BME280;4187;42.778;23.242;2024-01-30T06:45:43;97342.66;;;1.77;98.05
8298;BME280;4187;42.778;23.242;2024-01-30T06:48:09;97337.59;;;2.03;95.15
8298;BME280;4187;42.778;23.242;2024-01-30T06:50:36;97331.13;;;2.16;95.22
8298;BME280;4187;42.778;23.242;2024-01-30T06:53:04;97341.56;;;2.46;93.33
8298;BME280;4187;42.778;23.242;2024-01-30T06:55:31;97346.22;;;2.64;92.09
8298;BME280;4187;42.778;23.242;2024-01-30T06:57:58;97346.88;;;2.98;95.71
8298;BME280;4187;42.778;23.242;2024-01-30T07:00:25;97356.56;;;3.21;90.02
8298;BME280;4187;42.778;23.242;2024-01-30T07:02:51;97358.91;;;3.30;89.56
8298;BME280;4187;42.778;23.242;2024-01-30T07:05:18;97354.13;;;3.42;89.19
8298;BME280;4187;42.778;23.242;2024-01-30T07:07:47;97360.44;;;3.61;88.52
8298;BME280;4187;42.778;23.242;2024-01-30T07:10:15;97353.81;;;3.76;87.81
8298;BME280;4187;42.778;23.242;2024-01-30T07:12:42;97358.41;;;3.94;85.94
8298;BME280;4187;42.778;23.242;2024-01-30T07:15:09;97357.94;;;4.06;85.71
8298;BME280;4187;42.778;23.242;2024-01-30T07:17:36;97365.00;;;4.28;85.19
8298;BME280;4187;42.778;23.242;2024-01-30T07:20:04;97370.59;;;4.42;84.09
8298;BME280;4187;42.778;23.242;2024-01-30T07:22:31;97369.00;;;4.61;82.73
8298;BME280;4187;42.778;23.242;2024-01-30T07:24:58;97361.63;;;4.70;83.19
8298;BME280;4187;42.778;23.242;2024-01-30T07:27:27;97362.09;;;5.25;87.17
8298;BME280;4187;42.778;23.242;2024-01-30T07:29:53;97362.69;;;5.53;81.13
8298;BME280;4187;42.778;23.242;2024-01-30T07:32:20;97365.06;;;5.59;80.41
8298;BME280;4187;42.778;23.242;2024-01-30T07:34:47;97358.88;;;5.60;79.27
8298;BME280;4187;42.778;23.242;2024-01-30T07:37:13;97360.13;;;5.72;80.45
8298;BME280;4187;42.778;23.242;2024-01-30T07:39:41;97358.56;;;5.68;76.21
8298;BME280;4187;42.778;23.242;2024-01-30T07:42:08;97355.41;;;5.60;78.50
8298;BME280;4187;42.778;23.242;2024-01-30T07:44:36;97352.78;;;5.60;79.37
8298;BME280;4187;42.778;23.242;2024-01-30T07:47:03;97357.78;;;5.66;80.62
8298;BME280;4187;42.778;23.242;2024-01-30T07:49:30;97349.38;;;5.58;78.73
8298;BME280;4187;42.778;23.242;2024-01-30T07:52:00;97344.41;;;5.72;78.84
8298;BME280;4187;42.778;23.242;2024-01-30T07:54:30;97343.53;;;5.93;81.06
8298;BME280;4187;42.778;23.242;2024-01-30T07:56:58;97340.06;;;6.13;79.13
8298;BME280;4187;42.778;23.242;2024-01-30T07:59:25;97345.19;;;6.34;77.36
8298;BME280;4187;42.778;23.242;2024-01-30T08:01:53;97346.34;;;6.47;77.64
8298;BME280;4187;42.778;23.242;2024-01-30T08:04:20;97345.28;;;6.51;76.01
8298;BME280;4187;42.778;23.242;2024-01-30T08:06:47;97350.59;;;6.69;74.35
8298;BME280;4187;42.778;23.242;2024-01-30T08:09:14;97351.09;;;6.77;75.91
8298;BME280;4187;42.778;23.242;2024-01-30T08:11:41;97354.34;;;6.82;76.25
8298;BME280;4187;42.778;23.242;2024-01-30T08:14:07;97346.28;;;6.68;74.40
8298;BME280;4187;42.778;23.242;2024-01-30T08:16:34;97328.41;;;6.76;92.74
8298;BME280;4187;42.778;23.242;2024-01-30T08:19:02;97328.53;;;6.91;75.02
8298;BME280;4187;42.778;23.242;2024-01-30T08:21:30;97342.91;;;7.01;75.04
8298;BME280;4187;42.778;23.242;2024-01-30T08:24:02;97351.22;;;7.11;73.87
8298;BME280;4187;42.778;23.242;2024-01-30T08:26:29;97346.94;;;7.08;72.58
8298;BME280;4187;42.778;23.242;2024-01-30T08:28:56;97352.09;;;7.29;73.05
8298;BME280;4187;42.778;23.242;2024-01-30T08:31:23;97350.41;;;7.45;73.95
8298;BME280;4187;42.778;23.242;2024-01-30T08:33:49;97351.44;;;7.59;71.92
8298;BME280;4187;42.778;23.242;2024-01-30T08:36:18;97361.69;;;7.30;72.58
8298;BME280;4187;42.778;23.242;2024-01-30T08:38:44;97350.50;;;7.07;72.57
8298;BME280;4187;42.778;23.242;2024-01-30T08:41:11;97346.91;;;6.91;72.51
8298;BME280;4187;42.778;23.242;2024-01-30T08:43:38;97351.88;;;6.97;74.38
8298;BME280;4187;42.778;23.242;2024-01-30T08:46:05;97354.56;;;6.96;72.80
8298;BME280;4187;42.778;23.242;2024-01-30T08:48:31;97346.41;;;6.83;73.77
8298;BME280;4187;42.778;23.242;2024-01-30T08:50:58;97347.69;;;6.75;72.88
8298;BME280;4187;42.778;23.242;2024-01-30T08:53:26;97347.81;;;6.90;81.08
8298;BME280;4187;42.778;23.242;2024-01-30T08:55:53;97349.66;;;7.07;73.51
8298;BME280;4187;42.778;23.242;2024-01-30T08:58:20;97359.00;;;7.12;73.74
8298;BME280;4187;42.778;23.242;2024-01-30T09:00:46;97352.81;;;7.32;73.87
8298;BME280;4187;42.778;23.242;2024-01-30T09:03:13;97317.81;;;7.32;71.98
8298;BME280;4187;42.778;23.242;2024-01-30T09:05:40;97355.31;;;7.69;70.75
8298;BME280;4187;42.778;23.242;2024-01-30T09:08:07;97366.66;;;7.87;72.37
8298;BME280;4187;42.778;23.242;2024-01-30T09:10:35;97361.50;;;8.03;70.98
8298;BME280;4187;42.778;23.242;2024-01-30T09:13:02;97367.44;;;8.06;67.53
8298;BME280;4187;42.778;23.242;2024-01-30T09:15:29;97367.97;;;7.96;70.55
8298;BME280;4187;42.778;23.242;2024-01-30T09:17:56;97339.00;;;7.80;68.74
8298;BME280;4187;42.778;23.242;2024-01-30T09:20:23;97351.19;;;7.98;69.61
8298;BME280;4187;42.778;23.242;2024-01-30T09:22:50;97355.22;;;7.71;70.03
8298;BME280;4187;42.778;23.242;2024-01-30T09:25:16;97350.97;;;7.68;70.47
8298;BME280;4187;42.778;23.242;2024-01-30T09:27:46;97359.00;;;7.82;69.43
8298;BME280;4187;42.778;23.242;2024-01-30T09:30:13;97346.19;;;7.94;70.38
8298;BME280;4187;42.778;23.242;2024-01-30T09:32:40;97351.41;;;8.28;71.59
8298;BME280;4187;42.778;23.242;2024-01-30T09:35:08;97333.47;;;8.52;67.51
8298;BME280;4187;42.778;23.242;2024-01-30T09:37:34;97344.88;;;8.68;69.01
8298;BME280;4187;42.778;23.242;2024-01-30T09:40:01;97335.88;;;8.72;67.46
8298;BME280;4187;42.778;23.242;2024-01-30T09:42:33;97339.44;;;8.55;67.64
8298;BME280;4187;42.778;23.242;2024-01-30T09:45:02;97339.94;;;8.46;68.53
8298;BME280;4187;42.778;23.242;2024-01-30T09:47:31;97336.16;;;8.67;67.93
8298;BME280;4187;42.778;23.242;2024-01-30T09:49:58;97328.59;;;8.92;67.06
8298;BME280;4187;42.778;23.242;2024-01-30T09:52:25;97330.13;;;8.96;67.00
8298;BME280;4187;42.778;23.242;2024-01-30T09:54:53;97327.34;;;8.99;65.04
8298;BME280;4187;42.778;23.242;2024-01-30T09:57:20;97321.47;;;8.94;64.96
8298;BME280;4187;42.778;23.242;2024-01-30T09:59:47;97327.06;;;8.88;64.30
8298;BME280;4187;42.778;23.242;2024-01-30T10:02:16;97328.09;;;9.01;64.40
8298;BME280;4187;42.778;23.242;2024-01-30T10:04:44;97323.66;;;9.18;62.46
8298;BME280;4187;42.778;23.242;2024-01-30T10:07:11;97323.25;;;8.94;62.98
8298;BME280;4187;42.778;23.242;2024-01-30T10:09:38;97315.84;;;9.00;62.34
8298;BME280;4187;42.778;23.242;2024-01-30T10:12:06;97315.25;;;9.11;63.42
8298;BME280;4187;42.778;23.242;2024-01-30T10:14:33;97296.22;;;9.06;63.44
8298;BME280;4187;42.778;23.242;2024-01-30T10:17:01;97311.22;;;9.35;63.09
8298;BME280;4187;42.778;23.242;2024-01-30T10:19:29;97311.31;;;9.34;60.83
8298;BME280;4187;42.778;23.242;2024-01-30T10:21:56;97308.25;;;9.26;63.15
8298;BME280;4187;42.778;23.242;2024-01-30T10:24:24;97302.88;;;9.43;61.60
8298;BME280;4187;42.778;23.242;2024-01-30T10:26:51;97302.31;;;9.38;61.50
8298;BME280;4187;42.778;23.242;2024-01-30T10:29:18;97298.53;;;9.42;62.65
8298;BME280;4187;42.778;23.242;2024-01-30T10:31:45;97309.09;;;9.72;59.57
8298;BME280;4187;42.778;23.242;2024-01-30T10:34:12;97304.16;;;9.51;59.57
8298;BME280;4187;42.778;23.242;2024-01-30T10:36:40;97306.50;;;9.11;59.12
8298;BME280;4187;42.778;23.242;2024-01-30T10:39:09;97306.16;;;9.01;61.70
8298;BME280;4187;42.778;23.242;2024-01-30T10:41:41;97301.63;;;9.34;62.27
8298;BME280;4187;42.778;23.242;2024-01-30T10:44:10;97296.66;;;9.74;60.11
8298;BME280;4187;42.778;23.242;2024-01-30T10:46:38;97286.53;;;9.96;58.91
8298;BME280;4187;42.778;23.242;2024-01-30T10:49:06;97295.63;;;10.20;58.59
8298;BME280;4187;42.778;23.242;2024-01-30T10:51:34;97285.56;;;10.41;56.85
8298;BME280;4187;42.778;23.242;2024-01-30T10:54:03;97280.44;;;10.52;59.23
8298;BME280;4187;42.778;23.242;2024-01-30T10:56:32;97282.88;;;10.69;57.60
8298;BME280;4187;42.778;23.242;2024-01-30T10:58:59;97281.53;;;10.76;56.78
8298;BME280;4187;42.778;23.242;2024-01-30T11:01:27;97276.16;;;10.92;56.41
8298;BME280;4187;42.778;23.242;2024-01-30T11:03:55;97274.78;;;10.99;52.50
8298;BME280;4187;42.778;23.242;2024-01-30T11:06:23;97274.91;;;10.97;51.45
8298;BME280;4187;42.778;23.242;2024-01-30T11:09:00;97275.69;;;11.12;50.80
8298;BME280;4187;42.778;23.242;2024-01-30T11:11:31;97280.72;;;10.75;48.92
8298;BME280;4187;42.778;23.242;2024-01-30T11:14:00;97264.31;;;10.56;50.99
8298;BME280;4187;42.778;23.242;2024-01-30T11:16:31;97260.34;;;10.63;51.39
8298;BME280;4187;42.778;23.242;2024-01-30T11:19:00;97247.88;;;11.06;64.43
8298;BME280;4187;42.778;23.242;2024-01-30T11:21:27;97234.16;;;11.40;50.70
8298;BME280;4187;42.778;23.242;2024-01-30T11:23:55;97266.44;;;11.58;49.20
8298;BME280;4187;42.778;23.242;2024-01-30T11:26:27;97258.56;;;11.44;49.49
8298;BME280;4187;42.778;23.242;2024-01-30T11:28:55;97218.88;;;11.19;47.82
8298;BME280;4187;42.778;23.242;2024-01-30T11:31:23;97251.19;;;11.22;50.49
8298;BME280;4187;42.778;23.242;2024-01-30T11:33:52;97248.63;;;11.35;49.62
8298;BME280;4187;42.778;23.242;2024-01-30T11:36:22;97252.13;;;11.48;48.75
8298;BME280;4187;42.778;23.242;2024-01-30T11:38:51;97252.50;;;11.69;48.87
8298;BME280;4187;42.778;23.242;2024-01-30T11:41:18;97249.88;;;11.81;48.15
8298;BME280;4187;42.778;23.242;2024-01-30T11:43:51;97251.25;;;11.74;46.99
8298;BME280;4187;42.778;23.242;2024-01-30T11:46:19;97246.91;;;11.73;47.08
8298;BME280;4187;42.778;23.242;2024-01-30T11:48:46;97249.47;;;11.75;48.02
8298;BME280;4187;42.778;23.242;2024-01-30T11:51:13;97252.84;;;11.89;46.48
8298;BME280;4187;42.778;23.242;2024-01-30T11:53:41;97251.75;;;11.67;47.20
8298;BME280;4187;42.778;23.242;2024-01-30T11:56:08;97238.84;;;11.62;48.45
8298;BME280;4187;42.778;23.242;2024-01-30T11:58:35;97236.56;;;11.70;46.77
8298;BME280;4187;42.778;23.242;2024-01-30T12:01:02;97218.91;;;11.44;46.22
8298;BME280;4187;42.778;23.242;2024-01-30T12:03:30;97218.16;;;11.29;46.95
8298;BME280;4187;42.778;23.242;2024-01-30T12:05:57;97234.16;;;11.53;46.69
8298;BME280;4187;42.778;23.242;2024-01-30T12:08:24;97225.13;;;11.70;45.53
8298;BME280;4187;42.778;23.242;2024-01-30T12:10:56;97213.91;;;11.27;45.12
8298;BME280;4187;42.778;23.242;2024-01-30T12:13:24;97207.63;;;11.15;46.14
8298;BME280;4187;42.778;23.242;2024-01-30T12:15:51;97203.72;;;11.08;46.07
8298;BME280;4187;42.778;23.242;2024-01-30T12:18:19;97211.34;;;10.86;46.58
8298;BME280;4187;42.778;23.242;2024-01-30T12:20:56;97189.91;;;10.64;47.02
8298;BME280;4187;42.778;23.242;2024-01-30T12:23:24;97196.22;;;10.61;48.65
8298;BME280;4187;42.778;23.242;2024-01-30T12:25:54;97198.50;;;10.67;47.59
8298;BME280;4187;42.778;23.242;2024-01-30T12:28:21;97203.31;;;10.88;46.52
8298;BME280;4187;42.778;23.242;2024-01-30T12:30:48;97195.50;;;10.59;47.33
8298;BME280;4187;42.778;23.242;2024-01-30T12:33:16;97171.81;;;10.03;46.83
8298;BME280;4187;42.778;23.242;2024-01-30T12:35:45;97184.41;;;9.70;46.34
8298;BME280;4187;42.778;23.242;2024-01-30T12:38:14;97189.31;;;9.76;48.88
8298;BME280;4187;42.778;23.242;2024-01-30T12:40:41;97188.47;;;9.75;49.43
8298;BME280;4187;42.778;23.242;2024-01-30T12:43:08;97186.59;;;9.77;50.18
8298;BME280;4187;42.778;23.242;2024-01-30T12:45:36;97192.78;;;9.90;50.61
8298;BME280;4187;42.778;23.242;2024-01-30T12:48:03;97183.53;;;9.55;48.24
8298;BME280;4187;42.778;23.242;2024-01-30T12:50:30;97181.94;;;9.09;50.84
8298;BME280;4187;42.778;23.242;2024-01-30T12:52:57;97177.97;;;9.01;50.00
8298;BME280;4187;42.778;23.242;2024-01-30T12:55:25;97174.38;;;8.73;50.26
8298;BME280;4187;42.778;23.242;2024-01-30T12:57:53;97169.31;;;8.70;50.80
8298;BME280;4187;42.778;23.242;2024-01-30T13:00:21;97173.13;;;8.64;50.81
8298;BME280;4187;42.778;23.242;2024-01-30T13:02:48;97170.53;;;8.49;51.24
8298;BME280;4187;42.778;23.242;2024-01-30T13:05:17;97151.97;;;8.03;52.56
8298;BME280;4187;42.778;23.242;2024-01-30T13:07:44;97159.69;;;7.91;53.63
8298;BME280;4187;42.778;23.242;2024-01-30T13:10:11;97163.00;;;8.10;53.64
8298;BME280;4187;42.778;23.242;2024-01-30T13:12:41;97163.59;;;7.99;53.44
8298;BME280;4187;42.778;23.242;2024-01-30T13:15:08;97105.00;;;7.97;53.38
8298;BME280;4187;42.778;23.242;2024-01-30T13:17:36;97121.63;;;8.13;52.62
8298;BME280;4187;42.778;23.242;2024-01-30T13:20:04;97149.84;;;8.10;53.26